createdAt,value
2022-12-22T00:02:56.110Z,7.70
2022-12-22T00:06:16.516Z,7.80
2022-12-22T00:09:36.897Z,7.80
2022-12-22T00:12:57.757Z,7.80
2022-12-22T00:16:18.276Z,7.80
2022-12-22T00:19:39.093Z,7.80
2022-12-22T00:22:59.575Z,7.90
2022-12-22T00:26:20.045Z,7.90
2022-12-22T00:29:42.689Z,7.90
2022-12-22T00:33:02.949Z,7.90
2022-12-22T00:36:25.987Z,7.90
2022-12-22T00:39:46.333Z,8.00
2022-12-22T00:43:06.793Z,8.00
2022-12-22T00:46:31.319Z,8.00
2022-12-22T00:49:54.437Z,7.90
2022-12-22T00:53:15.348Z,7.90
2022-12-22T00:56:35.796Z,8.00
2022-12-22T00:59:59.415Z,7.90
2022-12-22T01:03:19.940Z,7.90
2022-12-22T01:06:40.328Z,7.90
2022-12-22T01:10:04.436Z,8.00
2022-12-22T01:13:30.582Z,8.00
2022-12-22T01:16:51.092Z,8.00
2022-12-22T01:20:11.519Z,8.10
2022-12-22T01:23:31.852Z,8.10
2022-12-22T01:26:52.144Z,8.10
2022-12-22T01:34:54.695Z,8.10
2022-12-22T01:38:15.238Z,8.10
2022-12-22T01:41:39.203Z,8.20
2022-12-22T01:44:59.757Z,8.20
2022-12-22T01:48:20.133Z,8.20
2022-12-22T01:51:45.739Z,8.30
2022-12-22T01:55:07.742Z,8.30
2022-12-22T01:58:39.780Z,8.30
2022-12-22T02:02:00.919Z,8.40
2022-12-22T02:05:24.156Z,8.40
2022-12-22T02:08:52.627Z,8.40
2022-12-22T02:12:21.185Z,8.40
2022-12-22T02:15:59.543Z,8.50
2022-12-22T02:19:25.680Z,8.40
2022-12-22T02:23:08.289Z,8.40
2022-12-22T02:26:57.349Z,8.50
2022-12-22T02:30:24.344Z,8.40
2022-12-22T02:33:44.917Z,8.50
2022-12-22T02:37:27.974Z,8.50
2022-12-22T02:41:08.898Z,8.50
2022-12-22T02:44:40.598Z,8.40
2022-12-22T02:48:09.150Z,8.50
2022-12-22T02:51:35.872Z,8.50
2022-12-22T02:54:56.817Z,8.50
2022-12-22T02:58:18.778Z,8.50
2022-12-22T03:01:39.226Z,8.60
2022-12-22T03:04:59.376Z,8.50
2022-12-22T03:08:19.883Z,8.50
2022-12-22T03:11:40.248Z,8.50
2022-12-22T03:15:00.577Z,8.60
2022-12-22T03:18:26.583Z,8.60
2022-12-22T03:21:47.890Z,8.50
2022-12-22T03:25:08.398Z,8.50
2022-12-22T03:28:10.292Z,8.50
2022-12-22T03:31:12.276Z,8.50
2022-12-22T03:34:14.032Z,8.60
2022-12-22T03:37:15.669Z,8.60
2022-12-22T03:40:17.520Z,8.60
2022-12-22T03:43:38.148Z,8.60
2022-12-22T03:46:39.912Z,8.60
2022-12-22T03:49:41.627Z,8.60
2022-12-22T03:52:43.292Z,8.60
2022-12-22T03:55:45.024Z,8.70
2022-12-22T03:58:46.697Z,8.70
2022-12-22T04:01:51.752Z,8.70
2022-12-22T04:04:53.601Z,8.70
2022-12-22T04:07:55.298Z,8.70
2022-12-22T04:11:15.453Z,8.60
2022-12-22T04:14:17.163Z,8.60
2022-12-22T04:17:18.870Z,8.60
2022-12-22T04:20:22.203Z,8.60
2022-12-22T04:23:23.949Z,8.70
2022-12-22T04:26:26.299Z,8.60
2022-12-22T04:29:27.997Z,8.60
2022-12-22T04:32:29.722Z,8.60
2022-12-22T04:35:31.530Z,8.70
2022-12-22T04:38:33.334Z,8.70
2022-12-22T04:41:35.183Z,8.70
2022-12-22T04:44:36.859Z,8.60
2022-12-22T04:47:38.890Z,8.60
2022-12-22T04:50:40.642Z,8.60
2022-12-22T04:53:42.339Z,8.70
2022-12-22T04:56:44.021Z,8.70
2022-12-22T04:59:45.711Z,8.70
2022-12-22T05:02:47.572Z,8.70
2022-12-22T05:05:58.551Z,8.70
2022-12-22T05:09:00.294Z,8.80
2022-12-22T05:12:21.943Z,8.70
2022-12-22T05:15:35.250Z,8.70
2022-12-22T05:18:38.259Z,8.70
2022-12-22T05:21:39.972Z,8.80
2022-12-22T05:24:41.680Z,8.80
2022-12-22T05:27:48.081Z,8.70
2022-12-22T05:30:49.778Z,8.80
2022-12-22T05:33:52.243Z,8.80
2022-12-22T05:36:53.881Z,8.80
2022-12-22T05:39:55.876Z,8.80
2022-12-22T05:42:57.597Z,8.80
2022-12-22T05:46:05.764Z,8.80
2022-12-22T05:49:10.558Z,8.80
2022-12-22T05:52:12.236Z,8.80
2022-12-22T05:55:17.134Z,8.70
2022-12-22T05:58:22.064Z,8.70
2022-12-22T06:01:24.343Z,8.80
2022-12-22T06:04:26.198Z,8.80
2022-12-22T06:07:27.961Z,8.80
2022-12-22T06:10:32.104Z,8.90
2022-12-22T06:13:33.812Z,8.90
2022-12-22T06:16:35.644Z,8.90
2022-12-22T06:19:37.505Z,8.90
2022-12-22T06:22:42.305Z,8.80
2022-12-22T06:25:55.822Z,8.90
2022-12-22T06:28:57.604Z,8.80
2022-12-22T06:31:59.339Z,8.90
2022-12-22T06:35:01.010Z,8.80
2022-12-22T06:38:02.785Z,8.90
2022-12-22T06:41:04.533Z,8.90
2022-12-22T06:44:06.508Z,8.90
2022-12-22T06:47:08.390Z,8.80
2022-12-22T06:50:10.699Z,8.90
2022-12-22T06:53:12.389Z,8.90
2022-12-22T06:56:14.162Z,8.90
2022-12-22T06:59:15.864Z,8.90
2022-12-22T07:02:17.693Z,8.90
2022-12-22T07:05:19.590Z,8.90
2022-12-22T07:08:21.394Z,8.80
2022-12-22T07:11:23.107Z,8.80
2022-12-22T07:14:24.816Z,8.80
2022-12-22T07:17:29.074Z,8.80
2022-12-22T07:20:30.772Z,8.90
2022-12-22T07:23:32.943Z,8.80
2022-12-22T07:26:34.601Z,8.80
2022-12-22T07:29:36.655Z,8.80
2022-12-22T07:32:38.321Z,8.80
2022-12-22T07:35:40.048Z,8.80
2022-12-22T07:38:44.250Z,8.80
2022-12-22T07:42:04.422Z,8.80
2022-12-22T07:45:06.566Z,8.90
2022-12-22T07:48:29.116Z,8.90
2022-12-22T07:51:35.203Z,8.90
2022-12-22T07:54:41.757Z,8.90
2022-12-22T07:57:44.222Z,8.90
2022-12-22T08:00:45.851Z,9.00
2022-12-22T08:03:47.588Z,9.00
2022-12-22T08:06:49.240Z,9.00
2022-12-22T08:09:50.936Z,9.00
2022-12-22T08:12:52.608Z,9.00
2022-12-22T08:16:06.651Z,9.00
2022-12-22T08:19:08.689Z,9.00
2022-12-22T08:22:11.846Z,9.00
2022-12-22T08:25:13.563Z,9.00
2022-12-22T08:28:17.854Z,9.00
2022-12-22T08:31:20.551Z,9.00
2022-12-22T08:34:22.362Z,9.00
2022-12-22T08:37:26.438Z,8.90
2022-12-22T08:40:31.338Z,8.90
2022-12-22T08:43:37.666Z,8.90
2022-12-22T08:46:39.447Z,8.90
2022-12-22T08:49:41.213Z,8.90
2022-12-22T08:52:42.944Z,8.90
2022-12-22T08:55:55.180Z,8.90
2022-12-22T08:59:01.366Z,9.00
2022-12-22T09:02:05.316Z,9.00
2022-12-22T09:05:07.589Z,9.10
2022-12-22T09:08:10.276Z,9.10
2022-12-22T09:11:13.113Z,9.10
2022-12-22T09:14:15.540Z,9.10
2022-12-22T09:17:17.912Z,9.10
2022-12-22T09:20:20.144Z,9.10
2022-12-22T09:23:21.813Z,9.20
2022-12-22T09:26:25.631Z,9.20
2022-12-22T09:29:27.300Z,9.20
2022-12-22T09:32:29.007Z,9.20
2022-12-22T09:35:30.660Z,9.20
2022-12-22T09:38:32.389Z,9.20
2022-12-22T09:41:48.120Z,9.10
2022-12-22T09:44:51.773Z,9.10
2022-12-22T09:48:20.185Z,9.10
2022-12-22T09:51:26.847Z,9.10
2022-12-22T09:54:30.244Z,9.00
2022-12-22T09:57:32.764Z,9.00
2022-12-22T10:00:36.419Z,9.00
2022-12-22T10:04:00.017Z,9.00
2022-12-22T10:07:08.076Z,8.90
2022-12-22T10:10:24.914Z,9.00
2022-12-22T10:13:26.666Z,9.00
2022-12-22T10:16:29.205Z,9.00
2022-12-22T10:19:30.901Z,9.00
2022-12-22T10:22:36.980Z,9.00
2022-12-22T10:29:31.541Z,9.10
2022-12-22T10:32:33.250Z,9.20
2022-12-22T10:35:54.565Z,9.20
2022-12-22T10:39:01.582Z,9.20
2022-12-22T10:42:16.420Z,9.20
2022-12-22T10:45:24.130Z,9.30
2022-12-22T10:48:30.811Z,9.30
2022-12-22T10:51:32.499Z,9.30
2022-12-22T10:54:38.465Z,9.30
2022-12-22T10:57:40.149Z,9.30
2022-12-22T11:00:42.016Z,9.30
2022-12-22T11:03:43.758Z,9.20
2022-12-22T11:06:45.913Z,9.10
2022-12-22T11:09:47.831Z,9.10
2022-12-22T11:13:08.079Z,9.10
2022-12-22T11:16:14.911Z,9.00
2022-12-22T11:19:41.069Z,9.00
2022-12-22T11:22:54.284Z,9.00
2022-12-22T11:26:24.067Z,9.00
2022-12-22T11:29:31.512Z,9.00
2022-12-22T11:32:44.220Z,9.00
2022-12-22T11:35:56.608Z,8.90
2022-12-22T11:39:07.793Z,8.90
2022-12-22T11:42:47.204Z,8.90
2022-12-22T11:46:00.906Z,8.90
2022-12-22T11:49:13.471Z,8.80
2022-12-22T11:52:37.113Z,8.90
2022-12-22T11:56:38.886Z,8.80
2022-12-22T12:00:49.005Z,8.80
2022-12-22T12:04:16.585Z,8.80
2022-12-22T12:07:43.360Z,8.80
2022-12-22T12:11:00.431Z,8.80
2022-12-22T12:14:20.801Z,8.90
2022-12-22T12:18:01.162Z,8.90
2022-12-22T12:21:18.137Z,8.90
2022-12-22T12:24:38.137Z,8.90
2022-12-22T12:27:55.345Z,8.90
2022-12-22T12:31:00.684Z,8.80
2022-12-22T12:34:03.650Z,8.90
2022-12-22T12:37:19.125Z,8.90
2022-12-22T12:40:29.107Z,8.90
2022-12-22T12:43:31.317Z,8.90
2022-12-22T12:46:51.144Z,8.90
2022-12-22T12:50:31.059Z,8.90
2022-12-22T12:53:33.044Z,8.80
2022-12-22T12:56:54.970Z,8.80
2022-12-22T12:59:58.904Z,8.80
2022-12-22T13:03:25.334Z,8.80
2022-12-22T13:06:53.423Z,8.80
2022-12-22T13:10:18.546Z,8.70
2022-12-22T13:13:23.374Z,8.70
2022-12-22T13:16:27.662Z,8.70
2022-12-22T13:19:30.850Z,8.70
2022-12-22T13:22:33.555Z,8.70
2022-12-22T13:25:48.849Z,8.70
2022-12-22T13:28:58.908Z,8.70
2022-12-22T13:32:03.710Z,8.70
2022-12-22T13:35:33.019Z,8.70
2022-12-22T13:38:37.726Z,8.70
2022-12-22T13:41:41.867Z,8.70
2022-12-22T13:44:43.938Z,8.70
2022-12-22T13:47:46.838Z,8.70
2022-12-22T13:50:50.140Z,8.70
2022-12-22T13:54:11.937Z,8.60
2022-12-22T13:57:20.841Z,8.60
2022-12-22T14:00:25.315Z,8.60
2022-12-22T14:03:58.153Z,8.50
2022-12-22T14:06:48.776Z,8.50
2022-12-22T14:09:54.795Z,8.50
2022-12-22T14:12:56.665Z,8.50
2022-12-22T14:16:05.170Z,8.40
2022-12-22T14:19:06.937Z,8.40
2022-12-22T14:22:20.664Z,8.50
2022-12-22T14:25:45.311Z,8.40
2022-12-22T14:28:53.226Z,8.40
2022-12-22T14:32:02.032Z,8.40
2022-12-22T14:35:04.446Z,8.40
2022-12-22T14:39:09.576Z,8.40
2022-12-22T14:42:13.806Z,8.30
2022-12-22T14:45:17.690Z,8.30
2022-12-22T14:48:27.725Z,8.20
2022-12-22T14:51:29.527Z,8.30
2022-12-22T14:54:31.411Z,8.20
2022-12-22T14:57:40.873Z,8.20
2022-12-22T15:00:45.612Z,8.10
2022-12-22T15:04:17.383Z,8.10
2022-12-22T15:07:54.080Z,8.10
2022-12-22T15:10:44.324Z,8.10
2022-12-22T15:13:48.295Z,8.10
2022-12-22T15:16:50.898Z,8.00
2022-12-22T15:19:59.096Z,8.00
2022-12-22T15:23:00.964Z,8.00
2022-12-22T15:26:02.656Z,8.00
2022-12-22T15:29:04.438Z,7.90
2022-12-22T15:32:11.525Z,7.80
2022-12-22T15:35:17.754Z,7.80
2022-12-22T15:38:23.070Z,7.80
2022-12-22T15:41:24.753Z,7.70
2022-12-22T15:44:26.526Z,7.70
2022-12-22T15:47:28.883Z,7.70
2022-12-22T15:50:39.097Z,7.70
2022-12-22T15:53:41.153Z,7.70
2022-12-22T15:56:43.490Z,7.60
2022-12-22T15:59:45.181Z,7.60
2022-12-22T16:02:47.384Z,7.60
2022-12-22T16:05:49.297Z,7.50
2022-12-22T16:09:37.691Z,7.50
2022-12-22T16:12:49.868Z,7.40
2022-12-22T16:15:51.723Z,7.40
2022-12-22T16:18:56.619Z,7.40
2022-12-22T16:21:58.310Z,7.40
2022-12-22T16:25:03.064Z,7.30
2022-12-22T16:28:05.578Z,7.30
2022-12-22T16:31:20.384Z,7.30
2022-12-22T16:34:22.128Z,7.30
2022-12-22T16:37:23.774Z,7.30
2022-12-22T16:40:26.976Z,7.20
2022-12-22T16:46:58.086Z,7.20
2022-12-22T16:50:00.937Z,7.10
2022-12-22T16:53:06.156Z,7.10
2022-12-22T16:56:14.032Z,7.20
2022-12-22T16:59:16.749Z,7.20
2022-12-22T17:02:28.325Z,7.10
2022-12-22T17:05:47.137Z,7.10
2022-12-22T17:08:49.256Z,7.20
2022-12-22T17:11:52.513Z,7.20
2022-12-22T17:14:55.968Z,7.20
2022-12-22T17:17:57.752Z,7.30
2022-12-22T17:21:00.525Z,7.30
2022-12-22T17:24:04.316Z,7.30
2022-12-22T17:27:06.234Z,7.30
2022-12-22T17:30:19.822Z,7.30
2022-12-22T17:33:21.786Z,7.30
2022-12-22T17:36:29.301Z,7.20
2022-12-22T17:39:32.616Z,7.20
2022-12-22T17:42:34.359Z,7.10
2022-12-22T17:45:36.106Z,7.10
2022-12-22T17:48:37.773Z,7.00
2022-12-22T17:51:41.611Z,7.00
2022-12-22T17:54:44.288Z,7.00
2022-12-22T17:57:46.445Z,7.00
2022-12-22T18:00:48.139Z,7.00
2022-12-22T18:03:49.907Z,6.90
2022-12-22T18:06:51.764Z,6.90
2022-12-22T18:09:59.649Z,6.90
2022-12-22T18:13:01.832Z,6.90
2022-12-22T18:16:03.608Z,6.90
2022-12-22T18:19:05.463Z,6.90
2022-12-22T18:22:47.818Z,6.90
2022-12-22T18:25:49.699Z,7.00
2022-12-22T18:28:52.203Z,7.00
2022-12-22T18:31:53.977Z,7.00
2022-12-22T18:34:55.746Z,7.10
2022-12-22T18:37:58.367Z,7.10
2022-12-22T18:41:05.411Z,7.10
2022-12-22T18:44:19.170Z,7.10
2022-12-22T18:47:20.924Z,7.10
2022-12-22T18:50:29.458Z,7.10
2022-12-22T18:53:42.386Z,7.20
2022-12-22T18:56:44.029Z,7.20
2022-12-22T18:59:47.511Z,7.20
2022-12-22T19:02:51.279Z,7.30
2022-12-22T19:05:53.919Z,7.30
2022-12-22T19:08:55.780Z,7.30
2022-12-22T19:11:58.058Z,7.30
2022-12-22T19:15:05.564Z,7.40
2022-12-22T19:18:11.264Z,7.40
2022-12-22T19:21:17.613Z,7.40
2022-12-22T19:24:19.971Z,7.50
2022-12-22T19:27:24.555Z,7.40
2022-12-22T19:30:29.271Z,7.40
2022-12-22T19:33:38.456Z,7.40
2022-12-22T19:36:41.097Z,7.40
2022-12-22T19:39:42.909Z,7.40
2022-12-22T19:42:47.885Z,7.40
2022-12-22T19:45:54.112Z,7.40
2022-12-22T19:48:56.975Z,7.40
2022-12-22T19:51:58.862Z,7.50
2022-12-22T19:55:00.836Z,7.50
2022-12-22T19:58:02.977Z,7.50
2022-12-22T20:01:07.643Z,7.50
2022-12-22T20:04:12.789Z,7.60
2022-12-22T20:07:25.503Z,7.50
2022-12-22T20:10:29.642Z,7.60
2022-12-22T20:13:33.578Z,7.60
2022-12-22T20:16:35.524Z,7.70
2022-12-22T20:19:39.351Z,7.70
2022-12-22T20:22:45.435Z,7.60
2022-12-22T20:25:58.671Z,7.70
2022-12-22T20:29:00.404Z,7.60
2022-12-22T20:32:02.201Z,7.60
2022-12-22T20:35:04.133Z,7.60
2022-12-22T20:38:39.180Z,7.60
2022-12-22T20:41:43.400Z,7.60
2022-12-22T20:45:03.006Z,7.60
2022-12-22T20:48:06.475Z,7.60
2022-12-22T20:51:13.882Z,7.60
2022-12-22T20:54:16.532Z,7.70
2022-12-22T20:57:18.834Z,7.60
2022-12-22T21:00:26.760Z,7.60
2022-12-22T21:03:28.609Z,7.60
2022-12-22T21:06:43.958Z,7.60
2022-12-22T21:09:45.609Z,7.60
2022-12-22T21:12:47.973Z,7.60
2022-12-22T21:15:51.049Z,7.60
2022-12-22T21:18:54.164Z,7.60
2022-12-22T21:21:55.853Z,7.70
2022-12-22T21:24:57.492Z,7.70
2022-12-22T21:27:59.420Z,7.70
2022-12-22T21:31:01.638Z,7.70
2022-12-22T21:34:03.423Z,7.80
2022-12-22T21:37:05.114Z,7.80
2022-12-22T21:40:07.309Z,7.80
2022-12-22T21:43:11.438Z,7.80
2022-12-22T21:46:13.665Z,7.90
2022-12-22T21:49:32.651Z,7.80
2022-12-22T21:52:34.366Z,7.90
2022-12-22T21:55:38.341Z,7.90
2022-12-22T21:58:40.005Z,7.90
2022-12-22T22:01:42.364Z,7.90
2022-12-22T22:04:48.442Z,8.00
2022-12-22T22:07:57.023Z,8.00
2022-12-22T22:10:59.207Z,8.00
2022-12-22T22:14:00.944Z,7.90
2022-12-22T22:17:02.647Z,8.00
2022-12-22T22:20:07.913Z,8.00
2022-12-22T22:23:12.749Z,8.00
2022-12-22T22:26:14.504Z,8.00
2022-12-22T22:29:16.243Z,8.10
2022-12-22T22:32:18.010Z,8.10
2022-12-22T22:35:20.842Z,8.20
2022-12-22T22:38:22.554Z,8.20
2022-12-22T22:41:25.345Z,8.20
2022-12-22T22:44:27.005Z,8.20
2022-12-22T22:47:28.642Z,8.20
2022-12-22T22:50:30.616Z,8.30
2022-12-22T22:53:32.324Z,8.30
2022-12-22T22:56:35.348Z,8.30
2022-12-22T22:59:37.666Z,8.20
2022-12-22T23:02:39.957Z,8.20
2022-12-22T23:05:41.803Z,8.20
2022-12-22T23:08:43.484Z,8.20
2022-12-22T23:11:45.298Z,8.20
2022-12-22T23:14:51.150Z,8.20
2022-12-22T23:17:52.958Z,8.20
2022-12-22T23:20:57.545Z,8.20
2022-12-22T23:23:59.248Z,8.20
2022-12-22T23:27:00.973Z,8.20
2022-12-22T23:30:02.688Z,8.30
2022-12-22T23:33:04.352Z,8.30
2022-12-22T23:36:06.344Z,8.30
2022-12-22T23:39:08.040Z,8.30
2022-12-22T23:42:09.683Z,8.30
2022-12-22T23:45:11.354Z,8.30
2022-12-22T23:48:13.023Z,8.30
2022-12-22T23:51:39.881Z,8.30
2022-12-22T23:54:41.523Z,8.30
2022-12-22T23:57:45.915Z,8.30
